sensor_id;sensor_type;location;lat;lon;timestamp;pressure;altitude;pressure_sealevel;temperature;humidity
73240;BME280;61452;40.054;4.110;2022-12-07T00:04:49;101560.09;;;17.55;55.52
73240;BME280;61452;40.054;4.110;2022-12-07T00:09:51;101558.38;;;17.54;55.64
73240;BME280;61452;40.054;4.110;2022-12-07T00:14:53;101555.66;;;17.55;55.71
73240;BME280;61452;40.054;4.110;2022-12-07T00:19:55;101544.28;;;17.53;55.68
73240;BME280;61452;40.054;4.110;2022-12-07T00:24:57;101537.16;;;17.54;55.51
73240;BME280;61452;40.054;4.110;2022-12-07T00:29:59;101535.38;;;17.54;55.27
73240;BME280;61452;40.054;4.110;2022-12-07T00:35:02;101538.78;;;17.56;55.19
73240;BME280;61452;40.054;4.110;2022-12-07T00:40:04;101546.66;;;17.58;55.29
73240;BME280;61452;40.054;4.110;2022-12-07T00:45:07;101537.84;;;17.57;55.46
73240;BME280;61452;40.054;4.110;2022-12-07T00:50:10;101518.06;;;17.49;55.48
73240;BME280;61452;40.054;4.110;2022-12-07T00:55:12;101529.13;;;17.55;55.28
73240;BME280;61452;40.054;4.110;2022-12-07T01:00:14;101523.72;;;17.57;55.18
73240;BME280;61452;40.054;4.110;2022-12-07T01:05:16;101524.56;;;17.57;55.34
73240;BME280;61452;40.054;4.110;2022-12-07T01:10:18;101542.19;;;17.58;55.59
73240;BME280;61452;40.054;4.110;2022-12-07T01:15:20;101540.59;;;17.56;55.54
73240;BME280;61452;40.054;4.110;2022-12-07T01:20:22;101539.72;;;17.55;55.48
73240;BME280;61452;40.054;4.110;2022-12-07T01:25:24;101545.03;;;17.55;55.33
73240;BME280;61452;40.054;4.110;2022-12-07T01:30:26;101554.69;;;17.56;55.51
73240;BME280;61452;40.054;4.110;2022-12-07T01:35:28;101557.25;;;17.58;55.57
73240;BME280;61452;40.054;4.110;2022-12-07T01:40:30;101558.38;;;17.54;55.79
73240;BME280;61452;40.054;4.110;2022-12-07T01:45:42;101562.66;;;17.56;55.70
73240;BME280;61452;40.054;4.110;2022-12-07T01:50:45;101562.75;;;17.55;55.80
73240;BME280;61452;40.054;4.110;2022-12-07T01:55:50;101563.59;;;17.55;55.59
73240;BME280;61452;40.054;4.110;2022-12-07T02:00:54;101565.50;;;17.53;55.77
73240;BME280;61452;40.054;4.110;2022-12-07T02:05:56;101556.59;;;17.54;55.31
73240;BME280;61452;40.054;4.110;2022-12-07T02:11:02;101569.84;;;17.54;55.40
73240;BME280;61452;40.054;4.110;2022-12-07T02:32:24;101552.03;;;17.56;54.87
73240;BME280;61452;40.054;4.110;2022-12-07T02:48:10;101535.28;;;17.56;54.90
73240;BME280;61452;40.054;4.110;2022-12-07T02:53:33;101527.31;;;17.56;54.64
73240;BME280;61452;40.054;4.110;2022-12-07T03:09:44;101503.66;;;17.53;54.65
73240;BME280;61452;40.054;4.110;2022-12-07T03:15:16;101493.06;;;17.53;54.50
73240;BME280;61452;40.054;4.110;2022-12-07T03:20:21;101487.19;;;17.48;54.73
73240;BME280;61452;40.054;4.110;2022-12-07T03:25:26;101502.81;;;17.52;54.75
73240;BME280;61452;40.054;4.110;2022-12-07T03:30:43;101493.88;;;17.53;54.63
73240;BME280;61452;40.054;4.110;2022-12-07T03:35:53;101488.69;;;17.52;54.40
73240;BME280;61452;40.054;4.110;2022-12-07T03:41:09;101482.44;;;17.53;54.60
73240;BME280;61452;40.054;4.110;2022-12-07T03:46:36;101491.34;;;17.52;54.33
73240;BME280;61452;40.054;4.110;2022-12-07T03:52:08;101489.53;;;17.52;54.24
73240;BME280;61452;40.054;4.110;2022-12-07T03:57:07;101487.84;;;17.51;54.68
73240;BME280;61452;40.054;4.110;2022-12-07T04:02:12;101478.09;;;17.52;54.70
73240;BME280;61452;40.054;4.110;2022-12-07T04:07:15;101481.47;;;17.54;54.46
73240;BME280;61452;40.054;4.110;2022-12-07T04:12:17;101477.88;;;17.55;54.37
73240;BME280;61452;40.054;4.110;2022-12-07T04:17:19;101484.88;;;17.56;54.51
73240;BME280;61452;40.054;4.110;2022-12-07T04:22:22;101492.06;;;17.54;54.76
73240;BME280;61452;40.054;4.110;2022-12-07T04:27:24;101485.91;;;17.53;54.92
73240;BME280;61452;40.054;4.110;2022-12-07T04:32:26;101479.78;;;17.53;54.63
73240;BME280;61452;40.054;4.110;2022-12-07T04:37:28;101486.69;;;17.55;54.51
73240;BME280;61452;40.054;4.110;2022-12-07T04:42:30;101478.72;;;17.55;54.48
73240;BME280;61452;40.054;4.110;2022-12-07T04:47:32;101481.38;;;17.55;54.62
73240;BME280;61452;40.054;4.110;2022-12-07T04:52:34;101475.31;;;17.53;54.59
73240;BME280;61452;40.054;4.110;2022-12-07T04:57:36;101483.25;;;17.53;54.52
73240;BME280;61452;40.054;4.110;2022-12-07T05:02:38;101484.25;;;17.52;54.63
73240;BME280;61452;40.054;4.110;2022-12-07T05:07:40;101487.84;;;17.51;54.38
73240;BME280;61452;40.054;4.110;2022-12-07T05:12:42;101482.31;;;17.54;54.33
73240;BME280;61452;40.054;4.110;2022-12-07T05:17:44;101474.75;;;17.48;54.45
73240;BME280;61452;40.054;4.110;2022-12-07T05:22:46;101497.28;;;17.55;54.33
73240;BME280;61452;40.054;4.110;2022-12-07T05:27:48;101497.50;;;17.52;54.33
73240;BME280;61452;40.054;4.110;2022-12-07T05:32:51;101506.41;;;17.51;54.31
73240;BME280;61452;40.054;4.110;2022-12-07T05:37:53;101513.41;;;17.52;54.07
73240;BME280;61452;40.054;4.110;2022-12-07T05:42:55;101525.69;;;17.53;54.24
73240;BME280;61452;40.054;4.110;2022-12-07T05:48:04;101526.47;;;17.55;54.20
73240;BME280;61452;40.054;4.110;2022-12-07T05:53:06;101534.50;;;17.54;54.46
73240;BME280;61452;40.054;4.110;2022-12-07T05:58:08;101540.91;;;17.51;54.30
73240;BME280;61452;40.054;4.110;2022-12-07T06:03:29;101539.94;;;17.52;54.16
73240;BME280;61452;40.054;4.110;2022-12-07T06:08:31;101538.97;;;17.53;54.23
73240;BME280;61452;40.054;4.110;2022-12-07T06:13:33;101545.97;;;17.54;54.26
73240;BME280;61452;40.054;4.110;2022-12-07T06:18:35;101544.28;;;17.53;54.34
73240;BME280;61452;40.054;4.110;2022-12-07T06:23:37;101540.91;;;17.51;54.29
73240;BME280;61452;40.054;4.110;2022-12-07T06:28:39;101540.97;;;17.50;54.23
73240;BME280;61452;40.054;4.110;2022-12-07T06:33:42;101545.44;;;17.49;54.08
73240;BME280;61452;40.054;4.110;2022-12-07T06:38:44;101553.38;;;17.49;54.07
73240;BME280;61452;40.054;4.110;2022-12-07T06:43:47;101556.03;;;17.49;54.28
73240;BME280;61452;40.054;4.110;2022-12-07T06:48:56;101556.25;;;17.46;54.31
73240;BME280;61452;40.054;4.110;2022-12-07T06:53:58;101554.25;;;17.50;54.40
73240;BME280;61452;40.054;4.110;2022-12-07T06:59:00;101549.56;;;17.53;54.44
73240;BME280;61452;40.054;4.110;2022-12-07T07:04:03;101548.63;;;17.54;54.45
73240;BME280;61452;40.054;4.110;2022-12-07T07:09:05;101560.19;;;17.53;54.68
73240;BME280;61452;40.054;4.110;2022-12-07T07:14:07;101554.16;;;17.51;54.92
73240;BME280;61452;40.054;4.110;2022-12-07T07:19:09;101553.38;;;17.49;54.99
73240;BME280;61452;40.054;4.110;2022-12-07T07:24:11;101554.06;;;17.53;54.83
73240;BME280;61452;40.054;4.110;2022-12-07T07:29:13;101561.03;;;17.54;55.12
73240;BME280;61452;40.054;4.110;2022-12-07T07:34:15;101554.78;;;17.55;54.90
73240;BME280;61452;40.054;4.110;2022-12-07T07:39:17;101546.19;;;17.51;54.90
73240;BME280;61452;40.054;4.110;2022-12-07T07:44:19;101548.94;;;17.50;55.03
73240;BME280;61452;40.054;4.110;2022-12-07T07:49:21;101538.34;;;17.50;55.10
73240;BME280;61452;40.054;4.110;2022-12-07T07:54:23;101539.09;;;17.52;54.84
73240;BME280;61452;40.054;4.110;2022-12-07T07:59:25;101543.44;;;17.53;54.96
73240;BME280;61452;40.054;4.110;2022-12-07T08:04:29;101543.44;;;17.53;54.83
73240;BME280;61452;40.054;4.110;2022-12-07T08:09:31;101545.44;;;17.49;54.84
73240;BME280;61452;40.054;4.110;2022-12-07T08:14:33;101555.19;;;17.49;54.81
73240;BME280;61452;40.054;4.110;2022-12-07T08:19:36;101557.84;;;17.49;54.83
73240;BME280;61452;40.054;4.110;2022-12-07T08:24:38;101571.97;;;17.49;54.86
73240;BME280;61452;40.054;4.110;2022-12-07T08:29:40;101563.25;;;17.47;54.34
73240;BME280;61452;40.054;4.110;2022-12-07T08:34:42;101560.50;;;17.49;54.29
73240;BME280;61452;40.054;4.110;2022-12-07T08:39:44;101579.16;;;17.47;54.39
73240;BME280;61452;40.054;4.110;2022-12-07T08:44:46;101575.66;;;17.47;54.24
73240;BME280;61452;40.054;4.110;2022-12-07T08:49:49;101593.41;;;17.46;54.10
73240;BME280;61452;40.054;4.110;2022-12-07T08:54:52;101580.94;;;17.47;54.08
73240;BME280;61452;40.054;4.110;2022-12-07T08:59:54;101585.22;;;17.49;54.08
73240;BME280;61452;40.054;4.110;2022-12-07T09:04:56;101587.78;;;17.51;54.08
73240;BME280;61452;40.054;4.110;2022-12-07T09:09:58;101582.56;;;17.49;54.21
73240;BME280;61452;40.054;4.110;2022-12-07T09:15:00;101587.09;;;17.47;54.21
73240;BME280;61452;40.054;4.110;2022-12-07T09:20:04;101586.25;;;17.47;54.05
73240;BME280;61452;40.054;4.110;2022-12-07T09:25:07;101591.78;;;17.44;54.14
73240;BME280;61452;40.054;4.110;2022-12-07T09:30:09;101603.03;;;17.47;54.00
73240;BME280;61452;40.054;4.110;2022-12-07T09:35:11;101602.00;;;17.50;54.06
73240;BME280;61452;40.054;4.110;2022-12-07T09:40:14;101595.75;;;17.51;54.02
73240;BME280;61452;40.054;4.110;2022-12-07T09:45:21;101602.84;;;17.50;54.09
73240;BME280;61452;40.054;4.110;2022-12-07T09:50:26;101603.03;;;17.47;54.11
73240;BME280;61452;40.054;4.110;2022-12-07T09:55:30;101595.06;;;17.47;54.15
73240;BME280;61452;40.054;4.110;2022-12-07T10:00:32;101601.13;;;17.49;53.88
73240;BME280;61452;40.054;4.110;2022-12-07T10:05:38;101607.28;;;17.50;53.91
73240;BME280;61452;40.054;4.110;2022-12-07T10:10:42;101601.91;;;17.51;54.08
73240;BME280;61452;40.054;4.110;2022-12-07T10:15:55;101591.38;;;17.50;54.20
73240;BME280;61452;40.054;4.110;2022-12-07T10:21:18;101581.81;;;17.47;54.12
73240;BME280;61452;40.054;4.110;2022-12-07T10:31:57;101572.19;;;17.46;54.23
73240;BME280;61452;40.054;4.110;2022-12-07T10:42:18;101575.66;;;17.47;54.13
73240;BME280;61452;40.054;4.110;2022-12-07T10:47:40;101569.63;;;17.45;53.98
73240;BME280;61452;40.054;4.110;2022-12-07T10:53:28;101568.66;;;17.46;54.14
73240;BME280;61452;40.054;4.110;2022-12-07T11:31:39;101514.56;;;17.48;54.02
73240;BME280;61452;40.054;4.110;2022-12-07T11:36:54;101511.91;;;17.48;54.05
73240;BME280;61452;40.054;4.110;2022-12-07T11:42:12;101498.72;;;17.47;54.06
73240;BME280;61452;40.054;4.110;2022-12-07T11:47:25;101502.16;;;17.49;53.92
73240;BME280;61452;40.054;4.110;2022-12-07T11:57:46;101491.34;;;17.52;53.73
73240;BME280;61452;40.054;4.110;2022-12-07T12:03:12;101476.38;;;17.51;53.74
73240;BME280;61452;40.054;4.110;2022-12-07T12:08:19;101472.88;;;17.50;53.97
73240;BME280;61452;40.054;4.110;2022-12-07T12:25:28;101451.75;;;17.49;53.77
73240;BME280;61452;40.054;4.110;2022-12-07T12:30:35;101442.75;;;17.51;53.63
73240;BME280;61452;40.054;4.110;2022-12-07T12:35:37;101437.22;;;17.54;53.69
73240;BME280;61452;40.054;4.110;2022-12-07T12:40:40;101419.59;;;17.53;53.77
73240;BME280;61452;40.054;4.110;2022-12-07T12:51:51;101408.28;;;17.51;53.87
73240;BME280;61452;40.054;4.110;2022-12-07T13:33:52;101389.47;;;17.54;53.77
73240;BME280;61452;40.054;4.110;2022-12-07T13:38:59;101388.63;;;17.54;53.82
73240;BME280;61452;40.054;4.110;2022-12-07T13:44:14;101398.19;;;17.56;53.57
73240;BME280;61452;40.054;4.110;2022-12-07T13:49:31;101388.53;;;17.55;53.48
73240;BME280;61452;40.054;4.110;2022-12-07T13:54:47;101390.22;;;17.56;53.65
73240;BME280;61452;40.054;4.110;2022-12-07T13:59:50;101378.78;;;17.56;53.85
73240;BME280;61452;40.054;4.110;2022-12-07T14:10:29;101391.28;;;17.54;53.75
73240;BME280;61452;40.054;4.110;2022-12-07T14:15:33;101381.31;;;17.57;53.64
73240;BME280;61452;40.054;4.110;2022-12-07T14:20:37;101383.97;;;17.57;53.51
73240;BME280;61452;40.054;4.110;2022-12-07T14:25:47;101387.47;;;17.58;53.70
73240;BME280;61452;40.054;4.110;2022-12-07T14:30:52;101376.97;;;17.56;53.53
73240;BME280;61452;40.054;4.110;2022-12-07T14:35:54;101385.88;;;17.55;53.67
73240;BME280;61452;40.054;4.110;2022-12-07T14:41:00;101387.56;;;17.56;53.50
73240;BME280;61452;40.054;4.110;2022-12-07T14:46:21;101385.88;;;17.55;53.62
73240;BME280;61452;40.054;4.110;2022-12-07T14:51:23;101384.06;;;17.56;53.68
73240;BME280;61452;40.054;4.110;2022-12-07T14:56:45;101392.88;;;17.56;53.67
73240;BME280;61452;40.054;4.110;2022-12-07T15:01:51;101387.56;;;17.56;53.50
73240;BME280;61452;40.054;4.110;2022-12-07T15:07:00;101391.19;;;17.55;53.58
73240;BME280;61452;40.054;4.110;2022-12-07T15:12:03;101389.28;;;17.57;53.34
73240;BME280;61452;40.054;4.110;2022-12-07T15:17:05;101391.84;;;17.59;53.31
73240;BME280;61452;40.054;4.110;2022-12-07T15:22:12;101391.84;;;17.59;53.39
73240;BME280;61452;40.054;4.110;2022-12-07T15:27:14;101394.50;;;17.59;53.36
73240;BME280;61452;40.054;4.110;2022-12-07T15:32:16;101391.94;;;17.57;53.43
73240;BME280;61452;40.054;4.110;2022-12-07T15:37:18;101395.53;;;17.56;53.43
73240;BME280;61452;40.054;4.110;2022-12-07T15:42:20;101391.09;;;17.57;53.56
73240;BME280;61452;40.054;4.110;2022-12-07T15:47:22;101389.28;;;17.57;53.67
73240;BME280;61452;40.054;4.110;2022-12-07T15:52:25;101392.66;;;17.59;53.31
73240;BME280;61452;40.054;4.110;2022-12-07T15:57:27;101390.84;;;17.60;53.50
73240;BME280;61452;40.054;4.110;2022-12-07T16:02:29;101387.34;;;17.59;53.46
73240;BME280;61452;40.054;4.110;2022-12-07T16:07:38;101383.88;;;17.59;53.49
73240;BME280;61452;40.054;4.110;2022-12-07T16:12:40;101394.59;;;17.57;53.40
73240;BME280;61452;40.054;4.110;2022-12-07T16:17:42;101400.75;;;17.58;53.38
73240;BME280;61452;40.054;4.110;2022-12-07T16:22:44;101387.47;;;17.58;53.50
73240;BME280;61452;40.054;4.110;2022-12-07T16:27:46;101394.41;;;17.60;53.49
73240;BME280;61452;40.054;4.110;2022-12-07T16:32:48;101384.63;;;17.61;53.41
73240;BME280;61452;40.054;4.110;2022-12-07T16:37:50;101374.88;;;17.61;53.40
73240;BME280;61452;40.054;4.110;2022-12-07T16:42:52;101369.78;;;17.58;53.52
73240;BME280;61452;40.054;4.110;2022-12-07T16:47:54;101372.41;;;17.58;53.55
73240;BME280;61452;40.054;4.110;2022-12-07T16:52:56;101378.56;;;17.59;53.31
73240;BME280;61452;40.054;4.110;2022-12-07T16:57:58;101378.56;;;17.59;53.49
73240;BME280;61452;40.054;4.110;2022-12-07T17:03:00;101370.63;;;17.59;53.30
73240;BME280;61452;40.054;4.110;2022-12-07T17:08:02;101376.88;;;17.58;53.53
73240;BME280;61452;40.054;4.110;2022-12-07T17:13:05;101373.38;;;17.57;53.39
73240;BME280;61452;40.054;4.110;2022-12-07T17:18:29;101376.03;;;17.57;53.25
73240;BME280;61452;40.054;4.110;2022-12-07T17:23:33;101376.88;;;17.58;53.47
73240;BME280;61452;40.054;4.110;2022-12-07T17:28:36;101373.19;;;17.60;53.38
73240;BME280;61452;40.054;4.110;2022-12-07T17:33:38;101376.75;;;17.59;53.43
73240;BME280;61452;40.054;4.110;2022-12-07T17:38:41;101359.16;;;17.58;53.43
73240;BME280;61452;40.054;4.110;2022-12-07T17:43:43;101372.28;;;17.60;53.19
73240;BME280;61452;40.054;4.110;2022-12-07T17:48:45;101366.13;;;17.59;53.18
73240;BME280;61452;40.054;4.110;2022-12-07T17:53:50;101368.78;;;17.59;53.19
73240;BME280;61452;40.054;4.110;2022-12-07T17:58:52;101371.44;;;17.59;53.03
73240;BME280;61452;40.054;4.110;2022-12-07T18:03:54;101366.13;;;17.59;53.16
73240;BME280;61452;40.054;4.110;2022-12-07T18:08:57;101366.13;;;17.59;53.28
73240;BME280;61452;40.054;4.110;2022-12-07T18:13:59;101369.63;;;17.60;53.41
73240;BME280;61452;40.054;4.110;2022-12-07T18:19:04;101374.94;;;17.60;53.27
73240;BME280;61452;40.054;4.110;2022-12-07T18:24:12;101378.56;;;17.59;53.29
73240;BME280;61452;40.054;4.110;2022-12-07T18:29:16;101374.09;;;17.59;53.17
73240;BME280;61452;40.054;4.110;2022-12-07T18:34:18;101365.72;;;17.53;53.25
73240;BME280;61452;40.054;4.110;2022-12-07T18:39:20;101381.13;;;17.60;53.11
73240;BME280;61452;40.054;4.110;2022-12-07T18:44:22;101373.28;;;17.59;53.00
73240;BME280;61452;40.054;4.110;2022-12-07T18:49:25;101372.41;;;17.58;53.13
73240;BME280;61452;40.054;4.110;2022-12-07T18:54:27;101371.44;;;17.59;52.88
73240;BME280;61452;40.054;4.110;2022-12-07T18:59:29;101362.56;;;17.60;52.92
73240;BME280;61452;40.054;4.110;2022-12-07T19:04:50;101364.25;;;17.61;53.12
73240;BME280;61452;40.054;4.110;2022-12-07T19:09:52;101367.78;;;17.62;53.28
73240;BME280;61452;40.054;4.110;2022-12-07T19:14:54;101365.31;;;17.59;53.31
73240;BME280;61452;40.054;4.110;2022-12-07T19:19:56;101372.28;;;17.60;53.30
73240;BME280;61452;40.054;4.110;2022-12-07T19:24:58;101379.41;;;17.59;53.16
73240;BME280;61452;40.054;4.110;2022-12-07T19:30:01;101359.91;;;17.60;53.15
73240;BME280;61452;40.054;4.110;2022-12-07T19:35:04;101361.63;;;17.61;53.24
73240;BME280;61452;40.054;4.110;2022-12-07T19:40:07;101355.34;;;17.62;53.13
73240;BME280;61452;40.054;4.110;2022-12-07T19:45:09;101361.63;;;17.61;53.43
73240;BME280;61452;40.054;4.110;2022-12-07T19:50:11;101358.19;;;17.59;53.38
73240;BME280;61452;40.054;4.110;2022-12-07T19:55:14;101352.88;;;17.59;53.18
73240;BME280;61452;40.054;4.110;2022-12-07T20:00:16;101349.41;;;17.59;53.21
73240;BME280;61452;40.054;4.110;2022-12-07T20:05:18;101348.41;;;17.60;53.31
73240;BME280;61452;40.054;4.110;2022-12-07T20:10:20;101351.84;;;17.62;53.24
73240;BME280;61452;40.054;4.110;2022-12-07T20:15:26;101349.19;;;17.62;53.40
73240;BME280;61452;40.054;4.110;2022-12-07T20:20:28;101352.72;;;17.62;53.54
73240;BME280;61452;40.054;4.110;2022-12-07T20:25:34;101349.31;;;17.60;53.37
73240;BME280;61452;40.054;4.110;2022-12-07T20:30:36;101345.75;;;17.60;53.32
73240;BME280;61452;40.054;4.110;2022-12-07T20:35:39;101346.75;;;17.59;53.36
73240;BME280;61452;40.054;4.110;2022-12-07T20:40:48;101350.22;;;17.59;53.36
73240;BME280;61452;40.054;4.110;2022-12-07T20:45:51;101357.44;;;17.57;53.25
73240;BME280;61452;40.054;4.110;2022-12-07T20:50:53;101361.81;;;17.58;53.25
73240;BME280;61452;40.054;4.110;2022-12-07T20:55:55;101347.69;;;17.58;53.26
73240;BME280;61452;40.054;4.110;2022-12-07T21:01:01;101359.16;;;17.58;53.16
73240;BME280;61452;40.054;4.110;2022-12-07T21:06:04;101350.34;;;17.58;53.17
73240;BME280;61452;40.054;4.110;2022-12-07T21:11:07;101335.47;;;17.55;53.11
73240;BME280;61452;40.054;4.110;2022-12-07T21:16:17;101346.84;;;17.57;53.11
73240;BME280;61452;40.054;4.110;2022-12-07T21:21:20;101346.00;;;17.57;53.36
73240;BME280;61452;40.054;4.110;2022-12-07T21:26:24;101347.69;;;17.58;53.22
73240;BME280;61452;40.054;4.110;2022-12-07T21:31:27;101332.72;;;17.57;53.17
73240;BME280;61452;40.054;4.110;2022-12-07T21:36:30;101338.88;;;17.57;53.26
73240;BME280;61452;40.054;4.110;2022-12-07T21:41:33;101350.34;;;17.58;53.16
73240;BME280;61452;40.054;4.110;2022-12-07T21:46:36;101338.88;;;17.57;53.21
73240;BME280;61452;40.054;4.110;2022-12-07T21:51:40;101338.88;;;17.57;53.18
73240;BME280;61452;40.054;4.110;2022-12-07T21:56:43;101334.22;;;17.61;53.09
73240;BME280;61452;40.054;4.110;2022-12-07T22:01:46;101332.44;;;17.61;53.04
73240;BME280;61452;40.054;4.110;2022-12-07T22:06:50;101329.97;;;17.58;53.33
73240;BME280;61452;40.054;4.110;2022-12-07T22:11:52;101314.34;;;17.54;53.27
73240;BME280;61452;40.054;4.110;2022-12-07T22:16:55;101323.81;;;17.58;53.19
73240;BME280;61452;40.054;4.110;2022-12-07T22:21:58;101320.31;;;17.57;53.06
73240;BME280;61452;40.054;4.110;2022-12-07T22:27:00;101323.81;;;17.58;53.14
73240;BME280;61452;40.054;4.110;2022-12-07T22:32:02;101314.16;;;17.57;53.25
73240;BME280;61452;40.054;4.110;2022-12-07T22:37:25;101317.75;;;17.56;53.19
73240;BME280;61452;40.054;4.110;2022-12-07T22:42:28;101328.28;;;17.57;53.00
73240;BME280;61452;40.054;4.110;2022-12-07T22:47:30;101329.13;;;17.58;52.90
73240;BME280;61452;40.054;4.110;2022-12-07T22:52:32;101321.38;;;17.55;53.03
73240;BME280;61452;40.054;4.110;2022-12-07T22:57:34;101318.63;;;17.56;53.17
73240;BME280;61452;40.054;4.110;2022-12-07T23:02:36;101320.41;;;17.56;53.14
73240;BME280;61452;40.054;4.110;2022-12-07T23:07:38;101311.50;;;17.57;52.97
73240;BME280;61452;40.054;4.110;2022-12-07T23:12:40;101301.75;;;17.57;52.88
73240;BME280;61452;40.054;4.110;2022-12-07T23:18:01;101295.59;;;17.57;52.88
73240;BME280;61452;40.054;4.110;2022-12-07T23:23:03;101288.59;;;17.56;52.90
73240;BME280;61452;40.054;4.110;2022-12-07T23:28:05;101285.94;;;17.56;52.83
73240;BME280;61452;40.054;4.110;2022-12-07T23:33:07;101284.97;;;17.57;52.87
73240;BME280;61452;40.054;4.110;2022-12-07T23:38:09;101285.72;;;17.59;52.79
73240;BME280;61452;40.054;4.110;2022-12-07T23:43:11;101289.19;;;17.59;52.71
73240;BME280;61452;40.054;4.110;2022-12-07T23:48:13;101284.97;;;17.57;53.06
73240;BME280;61452;40.054;4.110;2022-12-07T23:53:15;101284.13;;;17.56;52.80
73240;BME280;61452;40.054;4.110;2022-12-07T23:58:17;101261.22;;;17.55;52.82
